createdAt,value
2023-02-01T00:02:54.604Z,1010.64
2023-02-01T00:05:54.587Z,1010.65
2023-02-01T00:08:54.585Z,1010.66
2023-02-01T00:11:54.595Z,1010.7
2023-02-01T00:14:54.577Z,1010.59
2023-02-01T00:17:54.584Z,1010.65
2023-02-01T00:20:54.576Z,1010.7
2023-02-01T00:23:54.576Z,1010.65
2023-02-01T00:26:54.618Z,1010.64
2023-02-01T00:29:54.573Z,1010.57
2023-02-01T00:32:54.583Z,1010.48
2023-02-01T00:35:54.579Z,1010.48
2023-02-01T00:38:54.597Z,1010.53
2023-02-01T00:41:54.587Z,1010.56
2023-02-01T00:44:54.585Z,1010.51
2023-02-01T00:47:54.590Z,1010.5
2023-02-01T00:50:54.582Z,1010.43
2023-02-01T00:53:54.583Z,1010.39
2023-02-01T00:56:54.580Z,1010.31
2023-02-01T00:59:54.581Z,1010.34
2023-02-01T01:02:54.583Z,1010.43
2023-02-01T01:05:54.578Z,1010.55
2023-02-01T01:08:54.583Z,1010.54
2023-02-01T01:11:54.612Z,1010.53
2023-02-01T01:14:54.595Z,1010.55
2023-02-01T01:17:54.612Z,1010.45
2023-02-01T01:20:54.593Z,1010.43
2023-02-01T01:23:54.630Z,1010.35
2023-02-01T01:26:54.611Z,1010.41
2023-02-01T01:29:54.598Z,1010.39
2023-02-01T01:32:54.599Z,1010.36
2023-02-01T01:35:54.602Z,1010.36
2023-02-01T01:38:54.605Z,1010.36
2023-02-01T01:41:54.611Z,1010.32
2023-02-01T01:44:54.600Z,1010.24
2023-02-01T01:47:54.610Z,1010.26
2023-02-01T01:50:54.598Z,1010.24
2023-02-01T01:53:54.594Z,1010.24
2023-02-01T01:56:54.607Z,1010.15
2023-02-01T01:59:54.601Z,1010.1
2023-02-01T02:02:54.610Z,1010.1
2023-02-01T02:05:54.610Z,1010.06
2023-02-01T02:08:54.672Z,1009.98
2023-02-01T02:11:54.610Z,1009.83
2023-02-01T02:14:54.617Z,1009.75
2023-02-01T02:17:54.616Z,1009.75
2023-02-01T02:20:54.604Z,1009.76
2023-02-01T02:23:54.594Z,1009.76
2023-02-01T02:26:54.612Z,1009.75
2023-02-01T02:29:54.607Z,1009.79
2023-02-01T02:32:54.601Z,1009.86
2023-02-01T02:35:54.617Z,1010
2023-02-01T02:38:54.604Z,1010.01
2023-02-01T02:41:54.614Z,1010.03
2023-02-01T02:44:54.609Z,1010.06
2023-02-01T02:47:54.611Z,1010.11
2023-02-01T02:50:54.621Z,1010.08
2023-02-01T02:53:54.621Z,1010.05
2023-02-01T02:56:54.616Z,1010.03
2023-02-01T02:59:54.617Z,1009.97
2023-02-01T03:02:54.672Z,1009.97
2023-02-01T03:05:54.666Z,1009.89
2023-02-01T03:08:54.607Z,1009.8
2023-02-01T03:11:54.620Z,1009.82
2023-02-01T03:14:54.642Z,1009.82
2023-02-01T03:17:54.616Z,1009.79
2023-02-01T03:20:54.609Z,1009.78
2023-02-01T03:23:54.599Z,1009.77
2023-02-01T03:26:54.622Z,1009.72
2023-02-01T03:29:54.608Z,1009.72
2023-02-01T03:32:54.612Z,1009.7
2023-02-01T03:35:54.606Z,1009.66
2023-02-01T03:38:54.607Z,1009.65
2023-02-01T03:41:54.613Z,1009.63
2023-02-01T03:44:54.611Z,1009.64
2023-02-01T03:47:54.619Z,1009.63
2023-02-01T03:50:54.620Z,1009.61
2023-02-01T03:53:54.612Z,1009.61
2023-02-01T03:56:54.606Z,1009.57
2023-02-01T03:59:54.612Z,1009.56
2023-02-01T04:02:54.615Z,1009.45
2023-02-01T04:05:54.641Z,1009.47
2023-02-01T04:08:54.616Z,1009.4
2023-02-01T04:11:54.623Z,1009.46
2023-02-01T04:14:54.628Z,1009.47
2023-02-01T04:17:54.658Z,1009.5
2023-02-01T04:20:54.619Z,1009.49
2023-02-01T04:23:54.626Z,1009.5
2023-02-01T04:26:54.658Z,1009.45
2023-02-01T04:29:56.002Z,1009.37
2023-02-01T04:32:54.628Z,1009.47
2023-02-01T04:35:54.622Z,1009.54
2023-02-01T04:38:54.626Z,1009.61
2023-02-01T04:41:54.645Z,1009.68
2023-02-01T04:44:54.628Z,1009.59
2023-02-01T04:47:54.620Z,1009.63
2023-02-01T04:50:54.612Z,1009.56
2023-02-01T04:53:54.629Z,1009.57
2023-02-01T04:56:54.618Z,1009.5
2023-02-01T04:59:54.625Z,1009.44
2023-02-01T05:02:54.619Z,1009.4
2023-02-01T05:05:54.813Z,1009.48
2023-02-01T05:08:54.624Z,1009.43
2023-02-01T05:11:54.636Z,1009.43
2023-02-01T05:14:54.621Z,1009.47
2023-02-01T05:17:54.626Z,1009.39
2023-02-01T05:20:54.652Z,1009.38
2023-02-01T05:23:54.633Z,1009.32
2023-02-01T05:26:54.756Z,1009.29
2023-02-01T05:29:54.631Z,1009.31
2023-02-01T05:32:54.630Z,1009.35
2023-02-01T05:35:54.632Z,1009.39
2023-02-01T05:38:54.642Z,1009.37
2023-02-01T05:41:54.624Z,1009.38
2023-02-01T05:44:54.635Z,1009.44
2023-02-01T05:47:54.638Z,1009.46
2023-02-01T05:50:54.630Z,1009.38
2023-02-01T05:53:54.642Z,1009.39
2023-02-01T05:56:54.655Z,1009.35
2023-02-01T05:59:54.677Z,1009.4
2023-02-01T06:02:54.721Z,1009.4
2023-02-01T06:05:54.627Z,1009.3
2023-02-01T06:08:54.620Z,1009.23
2023-02-01T06:11:54.633Z,1009.3
2023-02-01T06:14:54.634Z,1009.32
2023-02-01T06:17:54.639Z,1009.31
2023-02-01T06:20:54.625Z,1009.18
2023-02-01T06:23:54.634Z,1009.24
2023-02-01T06:26:54.728Z,1009.3
2023-02-01T06:29:54.639Z,1009.31
2023-02-01T06:32:54.660Z,1009.36
2023-02-01T06:35:54.626Z,1009.4
2023-02-01T06:38:54.633Z,1009.32
2023-02-01T06:41:54.637Z,1009.28
2023-02-01T06:44:54.673Z,1009.31
2023-02-01T06:47:54.658Z,1009.29
2023-02-01T06:50:54.650Z,1009.29
2023-02-01T06:53:54.658Z,1009.36
2023-02-01T06:56:54.658Z,1009.4
2023-02-01T06:59:54.663Z,1009.41
2023-02-01T07:02:54.665Z,1009.4
2023-02-01T07:05:54.657Z,1009.4
2023-02-01T07:08:54.661Z,1009.29
2023-02-01T07:11:54.654Z,1009.23
2023-02-01T07:14:54.657Z,1009.2
2023-02-01T07:17:54.666Z,1009.24
2023-02-01T07:20:54.661Z,1009.21
2023-02-01T07:23:54.649Z,1009.09
2023-02-01T07:26:54.699Z,1009.06
2023-02-01T07:29:54.655Z,1009.12
2023-02-01T07:32:54.737Z,1009.23
2023-02-01T07:35:54.662Z,1009.27
2023-02-01T07:38:56.448Z,1009.34
2023-02-01T07:41:54.654Z,1009.46
2023-02-01T07:44:54.660Z,1009.54
2023-02-01T07:47:54.663Z,1009.64
2023-02-01T07:50:54.660Z,1009.73
2023-02-01T07:53:56.291Z,1009.76
2023-02-01T07:56:54.704Z,1009.81
2023-02-01T07:59:54.701Z,1009.85
2023-02-01T08:02:54.712Z,1009.79
2023-02-01T08:05:54.702Z,1009.78
2023-02-01T08:08:54.680Z,1009.73
2023-02-01T08:11:54.710Z,1009.76
2023-02-01T08:14:54.715Z,1009.8
2023-02-01T08:17:54.712Z,1009.9
2023-02-01T08:20:54.686Z,1009.88
2023-02-01T08:23:54.747Z,1009.87
2023-02-01T08:26:54.851Z,1009.92
2023-02-01T08:29:54.681Z,1009.95
2023-02-01T08:32:54.668Z,1010
2023-02-01T08:35:54.697Z,1010
2023-02-01T08:38:54.735Z,1010.02
2023-02-01T08:41:54.688Z,1010
2023-02-01T08:44:54.677Z,1010.03
2023-02-01T08:47:54.719Z,1010.05
2023-02-01T08:50:54.698Z,1010.08
2023-02-01T08:53:54.684Z,1010.06
2023-02-01T08:56:54.784Z,1010
2023-02-01T08:59:54.710Z,1010
2023-02-01T09:02:54.723Z,1009.97
2023-02-01T09:05:54.774Z,1009.97
2023-02-01T09:08:54.692Z,1009.99
2023-02-01T09:11:54.726Z,1010.02
2023-02-01T09:14:54.757Z,1010.06
2023-02-01T09:17:54.700Z,1010.05
2023-02-01T09:20:54.700Z,1010.07
2023-02-01T09:23:54.693Z,1010.1
2023-02-01T09:26:54.736Z,1010.22
2023-02-01T09:29:54.687Z,1010.17
2023-02-01T09:32:54.687Z,1010.16
2023-02-01T09:35:54.685Z,1010.34
2023-02-01T09:38:54.746Z,1010.38
2023-02-01T09:41:54.690Z,1010.4
2023-02-01T09:44:54.686Z,1010.45
2023-02-01T09:47:54.692Z,1010.56
2023-02-01T09:50:54.694Z,1010.55
2023-02-01T09:53:54.685Z,1010.58
2023-02-01T09:56:54.696Z,1010.57
2023-02-01T09:59:54.711Z,1010.59
2023-02-01T10:02:54.685Z,1010.56
2023-02-01T10:05:54.702Z,1010.49
2023-02-01T10:08:54.690Z,1010.48
2023-02-01T10:11:54.693Z,1010.45
2023-02-01T10:14:54.682Z,1010.44
2023-02-01T10:17:55.428Z,1010.42
2023-02-01T10:20:54.697Z,1010.44
2023-02-01T10:23:55.221Z,1010.44
2023-02-01T10:26:54.737Z,1010.36
2023-02-01T10:29:54.701Z,1010.34
2023-02-01T10:32:54.683Z,1010.22
2023-02-01T10:35:54.692Z,1010.21
2023-02-01T10:38:54.701Z,1010.14
2023-02-01T10:41:54.695Z,1010.12
2023-02-01T10:44:54.697Z,1010.12
2023-02-01T10:47:54.703Z,1010.14
2023-02-01T10:50:54.690Z,1010.1
2023-02-01T10:53:54.687Z,1010.07
2023-02-01T10:56:54.720Z,1010.08
2023-02-01T10:59:54.689Z,1009.99
2023-02-01T11:02:54.699Z,1010.01
2023-02-01T11:05:54.707Z,1009.95
2023-02-01T11:08:54.700Z,1009.96
2023-02-01T11:11:54.687Z,1009.97
2023-02-01T11:14:54.707Z,1009.95
2023-02-01T11:17:54.692Z,1009.92
2023-02-01T11:20:54.693Z,1009.83
2023-02-01T11:23:54.683Z,1009.85
2023-02-01T11:26:54.801Z,1009.88
2023-02-01T11:29:54.694Z,1009.85
2023-02-01T11:32:54.697Z,1009.89
2023-02-01T11:35:54.705Z,1009.81
2023-02-01T11:38:54.711Z,1009.79
2023-02-01T11:41:54.743Z,1009.76
2023-02-01T11:44:54.692Z,1009.75
2023-02-01T11:47:54.693Z,1009.73
2023-02-01T11:50:54.694Z,1009.68
2023-02-01T11:53:54.686Z,1009.71
2023-02-01T11:56:54.688Z,1009.73
2023-02-01T11:59:56.688Z,1009.71
2023-02-01T12:02:54.721Z,1009.68
2023-02-01T12:05:54.687Z,1009.64
2023-02-01T12:08:54.693Z,1009.58
2023-02-01T12:11:54.694Z,1009.57
2023-02-01T12:14:54.699Z,1009.59
2023-02-01T12:17:54.703Z,1009.58
2023-02-01T12:20:54.690Z,1009.56
2023-02-01T12:23:54.690Z,1009.51
2023-02-01T12:26:54.723Z,1009.54
2023-02-01T12:29:54.683Z,1009.49
2023-02-01T12:32:54.697Z,1009.47
2023-02-01T12:35:54.687Z,1009.5
2023-02-01T12:38:54.704Z,1009.49
2023-02-01T12:41:54.688Z,1009.47
2023-02-01T12:44:54.688Z,1009.37
2023-02-01T12:47:54.692Z,1009.25
2023-02-01T12:50:54.689Z,1009.3
2023-02-01T12:53:54.697Z,1009.22
2023-02-01T12:56:54.705Z,1009.17
2023-02-01T12:59:54.698Z,1009.18
2023-02-01T13:02:54.695Z,1009.2
2023-02-01T13:05:54.695Z,1009.16
2023-02-01T13:08:54.697Z,1009.09
2023-02-01T13:11:54.694Z,1009.09
2023-02-01T13:14:54.720Z,1009.15
2023-02-01T13:17:54.711Z,1009.02
2023-02-01T13:20:54.697Z,1009.07
2023-02-01T13:23:54.697Z,1009.02
2023-02-01T13:26:54.732Z,1008.98
2023-02-01T13:29:54.703Z,1008.98
2023-02-01T13:33:51.931Z,1009.04
2023-02-01T13:35:54.696Z,1009.02
2023-02-01T13:38:54.691Z,1008.95
2023-02-01T13:41:54.724Z,1008.91
2023-02-01T13:44:54.717Z,1008.9
2023-02-01T13:47:54.713Z,1008.87
2023-02-01T13:50:54.704Z,1008.95
2023-02-01T13:53:54.706Z,1008.84
2023-02-01T13:56:54.715Z,1008.82
2023-02-01T13:59:54.711Z,1008.81
2023-02-01T14:02:54.720Z,1008.8
2023-02-01T14:05:54.723Z,1008.77
2023-02-01T14:08:54.705Z,1008.76
2023-02-01T14:11:54.774Z,1008.72
2023-02-01T14:14:55.190Z,1008.62
2023-02-01T14:17:54.744Z,1008.51
2023-02-01T14:20:54.709Z,1008.5
2023-02-01T14:23:54.712Z,1008.47
2023-02-01T14:26:54.792Z,1008.51
2023-02-01T14:29:54.846Z,1008.44
2023-02-01T14:32:54.725Z,1008.43
2023-02-01T14:35:54.723Z,1008.52
2023-02-01T14:38:54.724Z,1008.47
2023-02-01T14:41:54.714Z,1008.39
2023-02-01T14:44:58.329Z,1008.38
2023-02-01T14:47:54.721Z,1008.43
2023-02-01T14:50:54.717Z,1008.42
2023-02-01T14:53:54.731Z,1008.46
2023-02-01T14:56:54.713Z,1008.43
2023-02-01T14:59:54.717Z,1008.43
2023-02-01T15:02:54.761Z,1008.42
2023-02-01T15:05:54.734Z,1008.47
2023-02-01T15:08:54.711Z,1008.48
2023-02-01T15:11:54.715Z,1008.54
2023-02-01T15:14:54.718Z,1008.6
2023-02-01T15:17:54.722Z,1008.61
2023-02-01T15:21:00.833Z,1008.7
2023-02-01T15:23:54.712Z,1008.68
2023-02-01T15:26:54.820Z,1008.66
2023-02-01T15:29:54.751Z,1008.63
2023-02-01T15:32:54.716Z,1008.64
2023-02-01T15:35:54.724Z,1008.63
2023-02-01T15:38:54.714Z,1008.62
2023-02-01T15:41:54.730Z,1008.58
2023-02-01T15:44:54.718Z,1008.63
2023-02-01T15:47:54.718Z,1008.68
2023-02-01T15:50:54.719Z,1008.65
2023-02-01T15:53:54.734Z,1008.72
2023-02-01T15:56:54.735Z,1008.71
2023-02-01T15:59:54.736Z,1008.71
2023-02-01T16:02:54.792Z,1008.75
2023-02-01T16:05:54.734Z,1008.81
2023-02-01T16:08:54.737Z,1008.81
2023-02-01T16:11:54.755Z,1008.8
2023-02-01T16:14:54.745Z,1008.85
2023-02-01T16:17:54.754Z,1008.8
2023-02-01T16:20:54.739Z,1008.82
2023-02-01T16:23:54.725Z,1008.82
2023-02-01T16:26:54.982Z,1008.86
2023-02-01T16:29:54.731Z,1008.82
2023-02-01T16:32:54.740Z,1008.78
2023-02-01T16:35:54.735Z,1008.72
2023-02-01T16:38:54.734Z,1008.72
2023-02-01T16:41:54.754Z,1008.7
2023-02-01T16:44:54.740Z,1008.71
2023-02-01T16:47:54.736Z,1008.75
2023-02-01T16:50:54.743Z,1008.74
2023-02-01T16:53:55.114Z,1008.72
2023-02-01T16:56:54.738Z,1008.74
2023-02-01T16:59:54.742Z,1008.75
2023-02-01T17:02:54.745Z,1008.71
2023-02-01T17:05:54.747Z,1008.67
2023-02-01T17:08:54.736Z,1008.69
2023-02-01T17:11:54.750Z,1008.65
2023-02-01T17:14:54.754Z,1008.57
2023-02-01T17:17:54.747Z,1008.56
2023-02-01T17:20:54.746Z,1008.56
2023-02-01T17:23:54.749Z,1008.63
2023-02-01T17:26:54.774Z,1008.74
2023-02-01T17:29:54.747Z,1008.75
2023-02-01T17:32:54.744Z,1008.78
2023-02-01T17:35:54.739Z,1008.84
2023-02-01T17:39:05.184Z,1008.83
2023-02-01T17:41:54.745Z,1008.85
2023-02-01T17:44:54.752Z,1008.85
2023-02-01T17:47:54.772Z,1008.87
2023-02-01T17:50:54.782Z,1008.98
2023-02-01T17:53:54.800Z,1009.04
2023-02-01T17:56:54.791Z,1009.05
2023-02-01T17:59:54.752Z,1009.06
2023-02-01T18:02:54.760Z,1009.06
2023-02-01T18:05:54.787Z,1009.07
2023-02-01T18:08:54.779Z,1009.05
2023-02-01T18:11:54.817Z,1009.03
2023-02-01T18:14:54.797Z,1009.11
2023-02-01T18:17:54.863Z,1009.17
2023-02-01T18:20:54.807Z,1009.18
2023-02-01T18:23:54.785Z,1009.19
2023-02-01T18:26:54.798Z,1009.17
2023-02-01T18:29:54.791Z,1009.16
2023-02-01T18:32:54.795Z,1009.11
2023-02-01T18:35:54.807Z,1009.05
2023-02-01T18:38:54.801Z,1009.04
2023-02-01T18:41:54.791Z,1009.06
2023-02-01T18:44:54.834Z,1009.07
2023-02-01T18:47:54.830Z,1009.08
2023-02-01T18:50:54.834Z,1009.08
2023-02-01T18:53:54.860Z,1009.14
2023-02-01T18:56:55.273Z,1009.24
2023-02-01T18:59:54.965Z,1009.28
2023-02-01T19:02:54.944Z,1009.32
2023-02-01T19:05:54.847Z,1009.27
2023-02-01T19:08:54.849Z,1009.29
2023-02-01T19:11:54.882Z,1009.34
2023-02-01T19:14:54.889Z,1009.34
2023-02-01T19:17:54.890Z,1009.3
2023-02-01T19:20:54.880Z,1009.24
2023-02-01T19:23:54.868Z,1009.23
2023-02-01T19:26:54.972Z,1009.27
2023-02-01T19:29:54.896Z,1009.2
2023-02-01T19:32:55.162Z,1009.18
2023-02-01T19:35:54.944Z,1009.22
2023-02-01T19:38:54.888Z,1009.26
2023-02-01T19:41:54.883Z,1009.28
2023-02-01T19:44:54.887Z,1009.23
2023-02-01T19:47:54.911Z,1009.19
2023-02-01T19:50:54.903Z,1009.25
2023-02-01T19:53:54.891Z,1009.33
2023-02-01T19:56:54.944Z,1009.33
2023-02-01T19:59:54.938Z,1009.36
2023-02-01T20:02:54.078Z,1009.29
2023-02-01T20:05:54.062Z,1009.34
2023-02-01T20:08:54.109Z,1009.33
2023-02-01T20:11:54.084Z,1009.27
2023-02-01T20:14:54.065Z,1009.28
2023-02-01T20:17:54.096Z,1009.31
2023-02-01T20:20:54.061Z,1009.21
2023-02-01T20:23:54.081Z,1009.19
2023-02-01T20:26:54.969Z,1009.12
2023-02-01T20:29:54.959Z,1009.12
2023-02-01T20:32:54.961Z,1009.12
2023-02-01T20:35:54.967Z,1009.1
2023-02-01T20:38:54.933Z,1009.17
2023-02-01T20:41:54.960Z,1009.22
2023-02-01T20:44:54.972Z,1009.22
2023-02-01T20:47:55.133Z,1009.28
2023-02-01T20:50:55.017Z,1009.27
2023-02-01T20:53:55.237Z,1009.26
2023-02-01T20:56:55.014Z,1009.24
2023-02-01T20:59:55.042Z,1009.23
2023-02-01T21:02:55.023Z,1009.19
2023-02-01T21:05:55.005Z,1009.23
2023-02-01T21:08:55.015Z,1009.24
2023-02-01T21:11:55.036Z,1009.21
2023-02-01T21:14:55.068Z,1009.2
2023-02-01T21:17:55.058Z,1009.19
2023-02-01T21:20:55.056Z,1009.18
2023-02-01T21:23:55.052Z,1009.19
2023-02-01T21:26:55.099Z,1009.22
2023-02-01T21:29:55.060Z,1009.23
2023-02-01T21:32:55.038Z,1009.3
2023-02-01T21:35:55.039Z,1009.32
2023-02-01T21:38:55.046Z,1009.45
2023-02-01T21:41:55.055Z,1009.45
2023-02-01T21:44:55.059Z,1009.39
2023-02-01T21:47:55.067Z,1009.43
2023-02-01T21:50:55.044Z,1009.49
2023-02-01T21:53:55.069Z,1009.48
2023-02-01T21:56:55.064Z,1009.47
2023-02-01T21:59:55.048Z,1009.43
2023-02-01T22:02:55.086Z,1009.42
2023-02-01T22:05:55.087Z,1009.45
2023-02-01T22:08:55.060Z,1009.4
2023-02-01T22:11:55.067Z,1009.42
2023-02-01T22:14:55.061Z,1009.41
2023-02-01T22:17:55.051Z,1009.54
2023-02-01T22:20:55.075Z,1009.59
2023-02-01T22:23:55.082Z,1009.57
2023-02-01T22:26:55.149Z,1009.54
2023-02-01T22:29:55.063Z,1009.51
2023-02-01T22:32:55.066Z,1009.44
2023-02-01T22:35:55.079Z,1009.52
2023-02-01T22:38:55.060Z,1009.57
2023-02-01T22:41:55.090Z,1009.63
2023-02-01T22:44:55.200Z,1009.63
2023-02-01T22:47:55.116Z,1009.72
2023-02-01T22:50:55.109Z,1009.73
2023-02-01T22:53:55.110Z,1009.82
2023-02-01T22:56:55.092Z,1009.76
2023-02-01T22:59:55.070Z,1009.81
2023-02-01T23:02:55.218Z,1009.86
2023-02-01T23:05:55.081Z,1009.88
2023-02-01T23:08:55.081Z,1009.88
2023-02-01T23:11:55.114Z,1009.87
2023-02-01T23:14:55.135Z,1009.79
2023-02-01T23:17:55.087Z,1009.79
2023-02-01T23:20:55.104Z,1009.82
2023-02-01T23:23:55.087Z,1009.77
2023-02-01T23:26:55.175Z,1009.72
2023-02-01T23:29:55.082Z,1009.7
2023-02-01T23:32:55.110Z,1009.68
2023-02-01T23:35:55.096Z,1009.68
2023-02-01T23:38:55.105Z,1009.71
2023-02-01T23:41:55.107Z,1009.69
2023-02-01T23:44:55.119Z,1009.72
2023-02-01T23:47:55.118Z,1009.68
2023-02-01T23:50:55.126Z,1009.72
2023-02-01T23:53:55.125Z,1009.7
2023-02-01T23:56:55.109Z,1009.72
2023-02-01T23:59:55.151Z,1009.78
